George S. — A8TJ9 — position and weather

sailwx.info

Track history (hours):
 
Tides and Currents Weather Stations Pressure Air Temp Water Temp Dewpoint Dewpoint Depression Visibility Wind Speed Wind Dir Waves Ship Positions

George S.

Last reported at 2016-Nov-30 21:11 UTC. Time now 2016-Dec-07 16:25 UTC.
Position N 07°46' W 014°58'.

Length 274 m; draft 9.6 m.

Type: Tanker. MMSI: 636014372.

Date/timePositionNaut miles runAvg speedWind from/ knotsBaromVisibWave heightAir tempDewpointWater temp
2016-Nov-30 21:11N 07°46' W 014°58'813.3
2016-Nov-30 20:33N 07°51' W 015°04'1313.2
2016-Nov-30 19:33N 07°60' W 015°14'1413.7
2016-Nov-30 18:33N 08°09' W 015°25'1514.5
2016-Nov-30 17:33N 08°18' W 015°36'1414.0
2016-Nov-30 16:31N 08°28' W 015°47'1313.7
2016-Nov-30 15:34N 08°36' W 015°57'1514.3
2016-Nov-30 14:32N 08°46' W 016°08'1414.5
2016-Nov-30 13:34N 08°55' W 016°19'  
2016-Nov-27 01:06N 28°18' W 016°04'814.6
2016-Nov-27 00:33N 28°26' W 016°08'4 0.9
2016-Nov-26 19:29N 28°29' W 016°11'4 3.8
2016-Nov-26 18:31N 28°27' W 016°08'1313.7
2016-Nov-26 17:33N 28°30' W 015°53'1616.3
2016-Nov-26 16:33N 28°42' W 015°41'1616.1
2016-Nov-26 15:33N 28°53' W 015°27'1616.1
2016-Nov-26 14:33N 29°04' W 015°14'  
2016-Nov-21 17:33N 35°58' W 005°24'23811.8
2016-Nov-20 21:20N 37°46' W 009°50'  
Track history (hours):
 
Tides and Currents Weather Stations Pressure Air Temp Water Temp Dewpoint Dewpoint Depression Visibility Wind Speed Wind Dir Waves Ship Positions

George S.

Last reported at 2016-Nov-30 21:11 UTC. Time now 2016-Dec-07 16:25 UTC.
Position N 07°46' W 014°58'.

Length 274 m; draft 9.6 m.

Type: Tanker. MMSI: 636014372.

Date/timePositionNaut miles runAvg speedWind from/ knotsBaromVisibWave heightAir tempDewpointWater temp
2016-Nov-30 21:11N 07°46' W 014°58'813.3
2016-Nov-30 20:33N 07°51' W 015°04'1313.2
2016-Nov-30 19:33N 07°60' W 015°14'1413.7
2016-Nov-30 18:33N 08°09' W 015°25'1514.5
2016-Nov-30 17:33N 08°18' W 015°36'1414.0
2016-Nov-30 16:31N 08°28' W 015°47'1313.7
2016-Nov-30 15:34N 08°36' W 015°57'1514.3
2016-Nov-30 14:32N 08°46' W 016°08'1414.5
2016-Nov-30 13:34N 08°55' W 016°19'  
2016-Nov-27 01:06N 28°18' W 016°04'814.6
2016-Nov-27 00:33N 28°26' W 016°08'4 0.9
2016-Nov-26 19:29N 28°29' W 016°11'4 3.8
2016-Nov-26 18:31N 28°27' W 016°08'1313.7
2016-Nov-26 17:33N 28°30' W 015°53'1616.3
2016-Nov-26 16:33N 28°42' W 015°41'1616.1
2016-Nov-26 15:33N 28°53' W 015°27'1616.1
2016-Nov-26 14:33N 29°04' W 015°14'  
2016-Nov-21 17:33N 35°58' W 005°24'23811.8
2016-Nov-20 21:20N 37°46' W 009°50'  

Dump ship's entire track history